ジョン・F・ケネディ国際空港の過去48時間の天気

ジョン・F・ケネディ国際空港 (New York, Kennedy International Airport)

現在時刻: 2/26 07:19 EST (2/26 12:19 UTC) 以下の時間は現地時間です。

過去48時間のMETAR気象情報
時間 風向 風速(m/s) 視程 気温(℃) 湿度(%) 気圧(hPa) 天気現象
26 06:51 西北西 10 10km以上 3.3 46 1012.5
26 05:51 北西 8 10km以上 3.3 48 1011.2
26 04:51 北西 11 10km以上 4.4 50 1009.8
26 03:51 北西 9 10km以上 6.1 55 1008.3
26 02:51 西北西 7 10km以上 6.7 62 1007.6
26 01:51 西北西 9 10km以上 6.7 62 1006.7
26 00:51 北西 10 10km以上 7.2 68 1005.7
25 23:51 北西 10 10km以上 8.3 68 1004.1
25 22:51 西北西 7 10km以上 10 71 1003.1
25 21:51 西北西 4 10km以上 10.6 71 1002.5
25 20:51 北西 6 10km以上 11.1 80 1002.2 弱い雨
25 20:39 北西 8 10km以上 11.1 86 1002
25 19:51 西 9 10km以上 12.8 100 1000.9 雨 もや
25 19:12 南西 6 10km以上 10.6 100 1000 弱い雨
25 19:08 南西 6 10km以上 10.6 100 1000 弱い雨
25 18:51 南西 7 400m 10 100 1000.8 強い雷雨 もや
25 18:43 南南西 6 400m 10 100 1001 弱い雷雨 もや
25 17:51 南南東 5 400m 11.1 100 999.2
25 17:47 南南東 6 400m 11 100 999
25 17:30 南南東 6 400m 11.1 100 999
25 17:14 7 200m 11.1 100 999
25 16:51 6 1,600m 11.7 100 999.2 もや
25 15:51 南南東 9 1,600m 13.9 93 999.5 もや
25 15:48 南南東 9 1,600m 14 94 999 もや
25 15:29 南南東 8 1,600m 13.9 89 1000 もや
25 14:51 8 10km以上 13.9 87 1001.7
25 13:51 南南東 9 10km以上 17.2 81 1002.6
25 12:51 南東 9 10km以上 15.6 83 1004.2
25 12:34 南南東 8 10km以上 15.6 83 1005 煙霧
25 12:09 南南東 7 1,600m 13.9 89 1006 もや
25 11:51 南東 8 8,050m 13.9 89 1005.7 もや
25 11:47 南東 7 6,450m 14 94 1006 もや
25 10:51 南東 4 400m 12.2 100 1006.8 もや
25 10:15 南東 3 400m 12.2 100 1007
25 10:02 南東 3 400m 12.2 100 1007
25 09:51 南南東 2 400m 11.7 100 1007.5
25 08:51 南東 3 400m 10.6 100 1008.1
25 07:51 東南東 2 400m 10 100 1008.8
25 06:51 南東 3 400m 8.9 100 1009.2
25 05:51 東南東 3 400m 10 100 1009.3
25 04:51 南東 4 400m 10 100 1009.5
25 04:31 静穏 0 400m 10 100 1010
25 04:22 東南東 3 400m 9.4 100 1010
25 04:10 南東 4 400m 9.4 100 1010
25 03:51 南南東 3 400m 9.4 100 1010.1
25 03:40 南南東 3 400m 9.4 100 1010
25 02:51 2 400m 10 100 1010.6
25 01:51 3 400m 10 100 1011
25 00:51 4 400m 10.6 100 1011.3
24 23:51 3 400m 10.6 100 1011.5
24 22:51 5 400m 10 100 1012.1
24 21:51 6 400m 10 100 1011.7
24 20:51 7 800m 10.6 100 1011.9 もや
24 20:32 8 800m 10.6 100 1012 もや
24 20:26 8 4,000m 10.6 100 1012 もや
24 19:51 9 10km以上 12.2 100 1011.7
24 19:48 10 10km以上 12 100 1012
24 18:51 9 10km以上 11.7 100 1011.9
24 17:51 9 10km以上 11.7 100 1011.8
24 16:51 9 10km以上 13.3 90 1011.7
24 15:51 9 10km以上 14.4 84 1011.9
24 14:51 9 10km以上 15 81 1012
24 13:51 10 10km以上 16.7 70 1012.5
24 12:51 7 10km以上 15.6 75 1013.5
24 11:51 5 10km以上 15 75 1014.3
24 10:51 4 10km以上 14.4 78 1015
24 09:51 3 10km以上 13.9 80 1015.1
24 08:51 静穏 0 10km以上 11.7 89 1014.8
24 07:51 3 10km以上 10 96 1014.6
KJFK 261151Z 30019G27KT 10SM BKN049 BKN060 03/M07 A2990 RMK AO2 PK WND 29029/1118 SLP125 70034 T00331072 10072 20033 51042
KJFK 261051Z 31016G26KT 10SM SCT042 SCT060 03/M07 A2986 RMK AO2 PK WND 32031/1041 SLP112 T00331067
KJFK 260951Z 31022G28KT 10SM SCT042 BKN055 04/M05 A2982 RMK AO2 PK WND 31030/0941 SLP098 T00441050
KJFK 260851Z 31017G23KT 10SM BKN045 06/M02 A2978 RMK AO2 PK WND 29027/0826 SLP083 T00611022 51025
KJFK 260751Z 30013KT 10SM SCT036 BKN060 07/00 A2976 RMK AO2 PK WND 30027/0702 SLP076 T00670000
KJFK 260651Z 30018G27KT 10SM BKN036 BKN060 07/00 A2973 RMK AO2 PK WND 31028/0639 SLP067 T00670000
KJFK 260551Z 32020G28KT 10SM BKN035 BKN065 BKN130 07/02 A2970 RMK AO2 PK WND 31030/0524 PRESRR SLP057 60026 T00720017 10128 20072 53033
KJFK 260451Z 31019G26KT 10SM SCT035 BKN120 08/03 A2965 RMK AO2 PK WND 33029/0440 SLP041 T00830028 401720083
KJFK 260351Z 29014KT 10SM BKN033 BKN110 10/05 A2962 RMK AO2 SLP031 T01000050
KJFK 260251Z 29008KT 10SM FEW020 FEW080 SCT100 SCT130 BKN250 11/06 A2960 RMK AO2 RAE37 SLP025 P0000 60026 T01060056 53015
KJFK 260151Z 32012G18KT 10SM -RA FEW011 BKN070 BKN130 OVC190 11/08 A2960 RMK AO2 PK WND 29032/0109 RAE22B47 SLP022 P0002 T01110078
KJFK 260139Z 31016G24KT 10SM FEW011 BKN065 BKN085 BKN130 OVC190 11/09 A2958 RMK AO2 PK WND 29032/0109 RAE22 P0002 T01110089
KJFK 260051Z 28018G25KT 6SM RA BR FEW011 BKN019 OVC060 13/13 A2956 RMK AO2 TSE07 SLP009 P0024 T01280128
KJFK 260012Z 23011KT 7SM -RA SCT003 BKN032 OVC080 11/11 A2954 RMK AO2 TSE07 P0010 T01060106
KJFK 260008Z 23011G20KT 7SM -RA SCT003 BKN014 OVC080 11/11 A2954 RMK AO2 TSE07 P0010 T01060106
KJFK 252351Z 23014KT 1/4SM R04R/3500VP6000FT +TSRA BR BKN003 OVC025CB 10/10 A2956 RMK AO2 SFC VIS 1 1/4 RAB31 TSB41 PRESRR SLP008 OCNL LTGIC SW-W TS SW-W MOV NE P0008 60008 T01000100 10172 20100 53016
KJFK 252343Z 20011KT 1/4SM R04R/2400V4000FT -TSRA BR BKN002 OVC025CB 10/10 A2956 RMK AO2 SFC VIS 3/4 RAB31 TSB41 PRESRR OCNL LTGIC SW TS SW MOV NE P0001 T01000100
KJFK 252251Z 16009G18KT 1/4SM R04R/2200V2800FT FG VV001 11/11 A2951 RMK AO2 SLP992 T01110111
KJFK 252247Z 16011KT 1/4SM R04R/2000V2800FT FG VV001 11/11 A2951 RMK AO2
KJFK 252230Z 16012KT 1/4SM R04R/1600V1800FT FG VV001 11/11 A2951 RMK AO2 T01110111
KJFK 252214Z 18013KT 1/8SM R04R/2000V3000FT FG VV001 11/11 A2951 RMK AO2 TWR VIS 1/4 T01110111
KJFK 252151Z 17012KT 1SM R04R/P6000FT BR BKN003 BKN028 OVC250 12/12 A2951 RMK AO2 SFC VIS 1 1/2 SLP992 T01170117
KJFK 252051Z 16017KT 1SM R04R/P6000FT BR BKN003 OVC028 14/13 A2952 RMK AO2 SFC VIS 5 SLP995 T01390128 58047
KJFK 252048Z 16018KT 1SM R04R/P6000FT BR BKN003 OVC028 14/13 A2951 RMK AO2 SFC VIS 5
KJFK 252029Z 16015KT 1SM R04R/P6000FT BR SCT003 SCT021 BKN029 OVC250 14/12 A2954 RMK AO2 SFC VIS 6 PRESFR SCT003 V BKN T01390122
KJFK 251951Z 17015KT 7SM SCT003 BKN030 OVC250 14/12 A2958 RMK AO2 SLP017 T01390117
KJFK 251851Z 16018KT 10SM FEW009 FEW023 SCT060 BKN250 17/14 A2961 RMK AO2 SLP026 T01720139
KJFK 251751Z 14018KT 10SM SCT003 SCT060 BKN250 16/13 A2966 RMK AO2 SLP042 T01560128 10156 20089 58026
KJFK 251734Z 15016KT 6SM HZ SCT002 BKN006 BKN060 16/13 A2967 RMK AO2 PRESFR T01560128
KJFK 251709Z 15013G21KT 1SM R04R/P6000FT BR BKN002 BKN006 14/12 A2970 RMK AO2 SFC VIS 2 T01390122
KJFK 251651Z 14016G20KT 5SM BR SCT002 BKN006 14/12 A2970 RMK AO2 SLP057 T01390122
KJFK 251647Z 14014KT 4SM BR SCT002 BKN005 14/13 A2970 RMK AO2
KJFK 251551Z 14008KT 1/4SM R04R/2600V5500FT BR OVC002 12/12 A2973 RMK AO2 SFC VIS 3/4 SLP068 T01220122
KJFK 251515Z 14005KT 1/4SM R04R/1400VP6000FT FG VV001 12/12 A2975 RMK AO2 T01220122
KJFK 251502Z 13005KT 1/4SM R04R/1200V1800FT FG VV001 12/12 A2975 RMK AO2 T01220122
KJFK 251451Z COR 15003KT 1/4SM R04R/0800V1200FT FG VV001 12/12 A2975 RMK AO2 SLP075 T01170117 58017
KJFK 251351Z 14005KT 1/4SM R04R/1200FT FG VV001 11/11 A2977 RMK AO2 SLP081 T01060106
KJFK 251251Z 12004KT 1/4SM R04R/1200FT FG VV002 10/10 A2979 RMK AO2 SLP088 T01000100
KJFK 251151Z 14006KT 1/4SM R04R/0800V1200FT FG VV002 09/09 A2980 RMK AO2 SLP092 T00890089 10106 20089 56009
KJFK 251051Z 12006KT 1/4SM R04R/1200V1400FT FG VV002 10/10 A2981 RMK AO2 SLP093 T01000100
KJFK 250951Z 13007KT 1/4SM R04R/1600V2400FT FG VV002 10/10 A2981 RMK AO2 SLP095 T01000100
KJFK 250931Z 00000KT 1/4SM R04R/2000V2400FT FG VV002 10/10 A2981 RMK AO2 T01000100
KJFK 250922Z 12005KT 1/4SM R04R/1800V2200FT FG VV002 09/09 A2982 RMK AO2 T00940094
KJFK 250910Z 13007KT 1/4SM R04R/2000V2400FT FG VV002 09/09 A2982 RMK AO2 T00940094
KJFK 250851Z 15005KT 1/4SM R04R/1400V1600FT FG VV002 09/09 A2983 RMK AO2 SLP101 T00940094 58012
KJFK 250840Z 15005KT 1/4SM R04R/1600V2000FT FG VV002 09/09 A2983 RMK AO2 T00940094
KJFK 250751Z 17003KT 1/4SM R04R/2400V2800FT FG VV002 10/10 A2985 RMK AO2 SLP106 T01000100
KJFK 250651Z 17005KT 1/4SM R04R/2400V3000FT FG VV002 10/10 A2986 RMK AO2 SFC VIS 1/2 SLP110 T01000100
KJFK 250551Z 17007KT 1/4SM R04R/2400V5000FT FG VV002 11/11 A2987 RMK AO2 SLP113 T01060106 10122 20094 58004
KJFK 250451Z 19006KT 1/4SM R04R/2400V4000FT FG OVC002 11/11 A2987 RMK AO2 SLP115 T01060106 401670072
KJFK 250351Z 18009KT 1/4SM R04R/4500VP6000FT FG VV002 10/10 A2989 RMK AO2 SFC VIS 1/2 SLP121 T01000100
KJFK 250251Z 18011KT 1/4SM R04R/2000V3500FT FG VV001 10/10 A2988 RMK AO2 SLP117 T01000100 57002
KJFK 250151Z 19014KT 1/2SM R04R/4000V5500FT BR OVC002 11/11 A2988 RMK AO2 SFC VIS 3/4 SLP119 T01060106
KJFK 250132Z 18015KT 1/2SM R04R/3500VP6000FT BR OVC002 11/11 A2989 RMK AO2 SFC VIS 3/4 T01060106
KJFK 250126Z 18016KT 2 1/2SM R04R/5500VP6000FT BR BKN002 11/11 A2989 RMK AO2 T01060106
KJFK 250051Z 18018KT 10SM FEW003 SCT250 12/12 A2988 RMK AO2 SLP117 T01220122
KJFK 250048Z 18019KT 10SM FEW003 SCT250 12/12 A2988 RMK AO2
KJFK 242351Z 18018KT 10SM FEW010 FEW110 SCT250 12/12 A2988 RMK AO2 SLP119 T01170117 10167 20117 55000
KJFK 242251Z 18018G25KT 10SM FEW010 FEW045 FEW110 SCT250 12/12 A2988 RMK AO2 PK WND 18026/2221 SLP118 T01170117
KJFK 242151Z 18018KT 10SM FEW025 FEW045 BKN250 13/12 A2988 RMK AO2 PK WND 18028/2129 SLP117 T01330117
KJFK 242051Z 18017KT 10SM FEW045 SCT250 14/12 A2989 RMK AO2 PK WND 18028/2036 SLP119 T01440117 56016
KJFK 241951Z 18018KT 10SM FEW045 SCT270 15/12 A2989 RMK AO2 SLP120 T01500117
KJFK 241851Z 18020KT 10SM FEW045 FEW300 17/11 A2990 RMK AO2 SLP125 T01670111 $
KJFK 241751Z 17014KT 10SM FEW017 FEW040 FEW300 16/11 A2993 RMK AO2 SLP135 T01560111 10161 20072 58016
KJFK 241651Z 18009KT 10SM FEW035 FEW170 SCT300 15/11 A2996 RMK AO2 SLP143 T01500106
KJFK 241551Z 18008KT 10SM FEW030 FEW170 SCT300 14/11 A2997 RMK AO2 SLP150 T01440106
KJFK 241451Z 18006KT 10SM FEW095 FEW170 BKN300 14/11 A2998 RMK AO2 SLP151 ACSL DSNT SE T01390106 52008
KJFK 241351Z 00000KT 10SM FEW170 SCT300 12/10 A2997 RMK AO2 SLP148 T01170100
KJFK 241251Z 17006KT 10SM FEW190 SCT280 10/09 A2996 RMK AO2 SLP146 T01000094